C6058 KNTD-KNTD
Flight info
| Callsign | C6058 |
|---|---|
| Flight time | 0h 28m |
| Altitude | 1500 |
| Route | DCT |
| Aircraft | H60/M-DFGHIRTUVY/S |
Departure
| Time | 2026-05-06 00:34 |
|---|---|
| Airport | Point Mugu Naval Air Station (Naval Base Ventura Co) (KNTD) |
Arrival
| Time | 2026-05-06 01:02 |
|---|---|
| Airport | Point Mugu Naval Air Station (Naval Base Ventura Co) (KNTD) |
| Time | Latitude | Longitude | Altitude | Speed | Heading |
|---|---|---|---|---|---|
| 2026-05-06 00:31 | 34.12875 | -119.10548 | 13 ft | 0 kts | 224° |
| 2026-05-06 00:32 | 34.12874 | -119.10549 | 29 ft | 2 kts | 222° |
| 2026-05-06 00:32 | 34.12890 | -119.10532 | 27 ft | 3 kts | 216° |
| 2026-05-06 00:32 | 34.12883 | -119.10539 | 28 ft | 2 kts | 214° |
| 2026-05-06 00:33 | 34.12881 | -119.10540 | 28 ft | 2 kts | 214° |
| 2026-05-06 00:33 | 34.12878 | -119.10544 | 27 ft | 3 kts | 213° |
| 2026-05-06 00:33 | 34.12886 | -119.10577 | 129 ft | 11 kts | 215° |
| 2026-05-06 00:34 | 34.12927 | -119.10792 | 366 ft | 49 kts | 277° |
| 2026-05-06 00:34 | 34.13113 | -119.11315 | 635 ft | 85 kts | 293° |
| 2026-05-06 00:34 | 34.13384 | -119.12031 | 751 ft | 102 kts | 290° |
| 2026-05-06 00:34 | 34.13479 | -119.12308 | 765 ft | 109 kts | 290° |
| 2026-05-06 00:35 | 34.13574 | -119.12601 | 726 ft | 117 kts | 289° |
| 2026-05-06 00:35 | 34.13868 | -119.13553 | 688 ft | 121 kts | 288° |
| 2026-05-06 00:35 | 34.14156 | -119.14526 | 722 ft | 124 kts | 286° |
| 2026-05-06 00:36 | 34.14437 | -119.15513 | 695 ft | 124 kts | 287° |
| 2026-05-06 00:36 | 34.14736 | -119.16489 | 736 ft | 123 kts | 289° |
| 2026-05-06 00:36 | 34.15054 | -119.17446 | 832 ft | 123 kts | 289° |
| 2026-05-06 00:36 | 34.15372 | -119.18416 | 945 ft | 126 kts | 289° |
| 2026-05-06 00:37 | 34.15650 | -119.19441 | 1006 ft | 132 kts | 284° |
| 2026-05-06 00:37 | 34.15901 | -119.20521 | 936 ft | 136 kts | 284° |
| 2026-05-06 00:37 | 34.16162 | -119.21586 | 911 ft | 132 kts | 285° |
| 2026-05-06 00:37 | 34.16423 | -119.22608 | 1091 ft | 124 kts | 285° |
| 2026-05-06 00:38 | 34.16712 | -119.23616 | 1243 ft | 129 kts | 288° |
| 2026-05-06 00:38 | 34.17043 | -119.24632 | 1203 ft | 131 kts | 290° |
| 2026-05-06 00:38 | 34.17404 | -119.25621 | 1220 ft | 127 kts | 292° |
| 2026-05-06 00:38 | 34.17795 | -119.26582 | 1250 ft | 126 kts | 295° |
| 2026-05-06 00:39 | 34.18048 | -119.27533 | 1387 ft | 118 kts | 274° |
| 2026-05-06 00:39 | 34.18234 | -119.28505 | 1497 ft | 122 kts | 286° |
| 2026-05-06 00:39 | 34.18526 | -119.29488 | 1454 ft | 125 kts | 288° |
| 2026-05-06 00:39 | 34.18791 | -119.30488 | 1400 ft | 126 kts | 278° |
| 2026-05-06 00:40 | 34.18950 | -119.31526 | 1325 ft | 124 kts | 280° |
| 2026-05-06 00:40 | 34.19133 | -119.32532 | 1356 ft | 121 kts | 281° |
| 2026-05-06 00:40 | 34.19321 | -119.33525 | 1395 ft | 121 kts | 281° |
| 2026-05-06 00:40 | 34.19515 | -119.34487 | 1469 ft | 118 kts | 280° |
| 2026-05-06 00:41 | 34.19676 | -119.35455 | 1566 ft | 118 kts | 279° |
| 2026-05-06 00:41 | 34.19806 | -119.36419 | 1436 ft | 115 kts | 278° |
| 2026-05-06 00:41 | 34.20009 | -119.37367 | 1354 ft | 118 kts | 285° |
| 2026-05-06 00:41 | 34.20182 | -119.38342 | 1340 ft | 119 kts | 279° |
| 2026-05-06 00:42 | 34.20332 | -119.39319 | 1364 ft | 117 kts | 278° |
| 2026-05-06 00:42 | 34.20473 | -119.40284 | 1401 ft | 115 kts | 278° |
| 2026-05-06 00:42 | 34.20549 | -119.41233 | 1409 ft | 111 kts | 271° |
| 2026-05-06 00:42 | 34.20665 | -119.42102 | 1294 ft | 98 kts | 277° |
| 2026-05-06 00:43 | 34.20503 | -119.42799 | 1012 ft | 91 kts | 220° |
| 2026-05-06 00:43 | 34.19959 | -119.42603 | 701 ft | 91 kts | 128° |
| 2026-05-06 00:43 | 34.20139 | -119.42002 | 556 ft | 79 kts | 30° |
| 2026-05-06 00:43 | 34.20463 | -119.42135 | 525 ft | 26 kts | 4° |
| 2026-05-06 00:44 | 34.20451 | -119.42238 | 462 ft | 6 kts | 5° |
| 2026-05-06 00:44 | 34.20470 | -119.42198 | 350 ft | 16 kts | 5° |
| 2026-05-06 00:44 | 34.20526 | -119.42131 | 236 ft | 4 kts | 5° |
| 2026-05-06 00:44 | 34.20511 | -119.42131 | 223 ft | 2 kts | 5° |
| 2026-05-06 00:45 | 34.20499 | -119.42132 | 197 ft | 1 kts | 5° |
| 2026-05-06 00:45 | 34.20491 | -119.42132 | 129 ft | 2 kts | 5° |
| 2026-05-06 00:45 | 34.20481 | -119.42135 | 193 ft | 1 kts | 5° |
| 2026-05-06 00:45 | 34.20482 | -119.42133 | 111 ft | 0 kts | 5° |
| 2026-05-06 00:46 | 34.20479 | -119.42133 | 37 ft | 3 kts | 5° |
| 2026-05-06 00:46 | 34.20473 | -119.42133 | 62 ft | 3 kts | 6° |
| 2026-05-06 00:46 | 34.20511 | -119.42126 | 61 ft | 7 kts | 6° |
| 2026-05-06 00:46 | 34.20556 | -119.42093 | 77 ft | 6 kts | 334° |
| 2026-05-06 00:47 | 34.20583 | -119.42081 | 85 ft | 3 kts | 329° |
| 2026-05-06 00:47 | 34.20608 | -119.42072 | 44 ft | 2 kts | 330° |
| 2026-05-06 00:47 | 34.20607 | -119.42071 | 44 ft | 1 kts | 330° |
| 2026-05-06 00:47 | 34.20608 | -119.42070 | 44 ft | 0 kts | 330° |
| 2026-05-06 00:48 | 34.20612 | -119.42073 | 35 ft | 1 kts | 330° |
| 2026-05-06 00:48 | 34.20612 | -119.42072 | 45 ft | 1 kts | 330° |
| 2026-05-06 00:48 | 34.20611 | -119.42072 | 81 ft | 1 kts | 330° |
| 2026-05-06 00:49 | 34.20682 | -119.42123 | 216 ft | 28 kts | 330° |
| 2026-05-06 00:49 | 34.21073 | -119.42138 | 346 ft | 93 kts | 27° |
| 2026-05-06 00:49 | 34.21617 | -119.41542 | 726 ft | 126 kts | 67° |
| 2026-05-06 00:49 | 34.22016 | -119.40588 | 719 ft | 116 kts | 64° |
| 2026-05-06 00:50 | 34.22363 | -119.39758 | 818 ft | 107 kts | 64° |
| 2026-05-06 00:50 | 34.22711 | -119.38936 | 832 ft | 112 kts | 64° |
| 2026-05-06 00:50 | 34.23090 | -119.38036 | 828 ft | 133 kts | 64° |
| 2026-05-06 00:50 | 34.23520 | -119.36993 | 842 ft | 143 kts | 64° |
| 2026-05-06 00:51 | 34.23967 | -119.35900 | 810 ft | 145 kts | 64° |
| 2026-05-06 00:51 | 34.24118 | -119.35527 | 783 ft | 148 kts | 64° |
| 2026-05-06 00:51 | 34.24872 | -119.33682 | 710 ft | 145 kts | 64° |
| 2026-05-06 00:51 | 34.25316 | -119.32597 | 783 ft | 145 kts | 64° |
| 2026-05-06 00:52 | 34.25755 | -119.31530 | 903 ft | 137 kts | 64° |
| 2026-05-06 00:52 | 34.26156 | -119.30497 | 1006 ft | 134 kts | 67° |
| 2026-05-06 00:52 | 34.26513 | -119.29525 | 1012 ft | 122 kts | 67° |
| 2026-05-06 00:52 | 34.26815 | -119.28635 | 991 ft | 103 kts | 70° |
| 2026-05-06 00:53 | 34.27052 | -119.27884 | 966 ft | 87 kts | 72° |
| 2026-05-06 00:53 | 34.27240 | -119.27262 | 861 ft | 71 kts | 72° |
| 2026-05-06 00:53 | 34.27360 | -119.26691 | 753 ft | 72 kts | 72° |
| 2026-05-06 00:53 | 34.27479 | -119.26128 | 625 ft | 65 kts | 72° |
| 2026-05-06 00:54 | 34.27578 | -119.25665 | 467 ft | 46 kts | 70° |
| 2026-05-06 00:54 | 34.27627 | -119.25427 | 427 ft | 9 kts | 70° |
| 2026-05-06 00:54 | 34.27629 | -119.25416 | 333 ft | 2 kts | 71° |
| 2026-05-06 00:54 | 34.27647 | -119.25342 | 370 ft | 10 kts | 70° |
| 2026-05-06 00:55 | 34.27660 | -119.25273 | 368 ft | 6 kts | 70° |
| 2026-05-06 00:55 | 34.27670 | -119.25217 | 366 ft | 10 kts | 70° |
| 2026-05-06 00:55 | 34.27683 | -119.25140 | 367 ft | 16 kts | 70° |
| 2026-05-06 00:55 | 34.27765 | -119.25117 | 411 ft | 15 kts | 340° |
| 2026-05-06 00:56 | 34.27767 | -119.25202 | 409 ft | 14 kts | 219° |
| 2026-05-06 00:56 | 34.27693 | -119.25276 | 362 ft | 13 kts | 205° |
| 2026-05-06 00:56 | 34.27671 | -119.25333 | 302 ft | 6 kts | 175° |
| 2026-05-06 00:56 | 34.27652 | -119.25339 | 212 ft | 2 kts | 167° |
| 2026-05-06 00:57 | 34.27647 | -119.25360 | 210 ft | 2 kts | 167° |
| 2026-05-06 00:57 | 34.27647 | -119.25361 | 201 ft | 1 kts | 167° |
| 2026-05-06 00:57 | 34.27622 | -119.25338 | 239 ft | 13 kts | 167° |
| 2026-05-06 00:57 | 34.27316 | -119.25153 | 339 ft | 91 kts | 162° |
| 2026-05-06 00:58 | 34.26623 | -119.24663 | 470 ft | 129 kts | 153° |
| 2026-05-06 00:58 | 34.25857 | -119.23968 | 565 ft | 147 kts | 144° |
| 2026-05-06 00:58 | 34.25082 | -119.23151 | 671 ft | 149 kts | 144° |
| 2026-05-06 00:58 | 34.24259 | -119.22348 | 725 ft | 154 kts | 146° |
| 2026-05-06 00:59 | 34.23401 | -119.21560 | 778 ft | 155 kts | 147° |
| 2026-05-06 00:59 | 34.22526 | -119.20782 | 790 ft | 158 kts | 148° |
| 2026-05-06 00:59 | 34.21615 | -119.20014 | 744 ft | 160 kts | 150° |
| 2026-05-06 00:59 | 34.20696 | -119.19293 | 810 ft | 155 kts | 153° |
| 2026-05-06 01:00 | 34.19749 | -119.18642 | 741 ft | 161 kts | 155° |
| 2026-05-06 01:00 | 34.18772 | -119.17995 | 719 ft | 159 kts | 154° |
| 2026-05-06 01:00 | 34.17820 | -119.17306 | 691 ft | 162 kts | 153° |
| 2026-05-06 01:00 | 34.16857 | -119.16609 | 656 ft | 158 kts | 153° |
| 2026-05-06 01:01 | 34.15926 | -119.15871 | 621 ft | 164 kts | 147° |
| 2026-05-06 01:01 | 34.15017 | -119.15014 | 494 ft | 165 kts | 146° |
| 2026-05-06 01:01 | 34.14139 | -119.14160 | 559 ft | 160 kts | 144° |
| 2026-05-06 01:01 | 34.13462 | -119.13062 | 526 ft | 168 kts | 120° |
| 2026-05-06 01:02 | 34.13263 | -119.11731 | 385 ft | 158 kts | 92° |
| 2026-05-06 01:02 | 34.13306 | -119.10650 | 304 ft | 93 kts | 75° |
| 2026-05-06 01:02 | 34.13387 | -119.10292 | 311 ft | 28 kts | 165° |
| 2026-05-06 01:02 | 34.13172 | -119.10304 | 210 ft | 28 kts | 170° |
| 2026-05-06 01:03 | 34.13018 | -119.10379 | 127 ft | 21 kts | 214° |
| 2026-05-06 01:03 | 34.12937 | -119.10467 | 65 ft | 14 kts | 226° |
| 2026-05-06 01:03 | 34.12892 | -119.10527 | 32 ft | 7 kts | 224° |
| 2026-05-06 01:03 | 34.12874 | -119.10549 | 14 ft | 0 kts | 223° |
| 2026-05-06 01:07 | 34.12873 | -119.10550 | 14 ft | 1 kts | 223° |
| 2026-05-06 01:07 | 34.12862 | -119.10552 | 14 ft | 2 kts | 136° |
| 2026-05-06 01:07 | 34.12844 | -119.10530 | 14 ft | 4 kts | 139° |
| 2026-05-06 01:08 | 34.12819 | -119.10532 | 14 ft | 4 kts | 207° |
| 2026-05-06 01:08 | 34.12811 | -119.10545 | 13 ft | 4 kts | 309° |
| 2026-05-06 01:08 | 34.12807 | -119.10539 | 14 ft | 1 kts | 307° |
| 2026-05-06 01:08 | 34.12803 | -119.10532 | 14 ft | 1 kts | 307° |
| 2026-05-06 01:09 | 34.12799 | -119.10525 | 14 ft | 1 kts | 311° |
| 2026-05-06 01:09 | 34.12795 | -119.10520 | 14 ft | 1 kts | 311° |
| 2026-05-06 01:09 | 34.12793 | -119.10517 | 14 ft | 0 kts | 311° |
| 2026-05-06 01:09 | 34.12792 | -119.10516 | 14 ft | 0 kts | 311° |